ADDS METAR Data INFO
IDs: Format: Raw Decoded Include TAF

Data at: 0559 UTC 25 Jun 2018

KSLR 250555Z AUTO 14005KT 10SM CLR 25/20 A2991 RMK AO2 T02480199 10346 20245 403560245
KSLR 250535Z AUTO 00000KT 10SM CLR 25/20 A2992 RMK AO2 T02470195
KSLR 250515Z AUTO 00000KT 10SM CLR 25/19 A2991 RMK AO2 T02500192
KSLR 250455Z AUTO 00000KT 10SM CLR 25/19 A2991 RMK AO2 T02500189
KSLR 250435Z AUTO 00000KT 10SM CLR 25/18 A2991 RMK AO2 T02460184
KSLR 250415Z AUTO 12004KT 10SM SCT050 25/18 A2993 RMK AO2 T02460180
KSLR 250355Z AUTO 12004KT 10SM SCT050 25/18 A2992 RMK AO2 T02480176
KSLR 250335Z AUTO 12007KT 10SM CLR 25/17 A2991 RMK AO2 T02500174
KSLR 250315Z AUTO 11008KT 10SM CLR 25/17 A2991 RMK AO2 T02500171
KSLR 250255Z AUTO 12009KT 10SM CLR 25/17 A2990 RMK AO2 T02500172
KSLR 250235Z AUTO 11011KT 10SM CLR 25/18 A2991 RMK AO2 T02500177
KSLR 250215Z AUTO 10014G19KT 10SM CLR 25/18 A2990 RMK AO2 T02500179
KSLR 250155Z AUTO 10010KT 10SM CLR 25/18 A2990 RMK AO2 LTG DSNT E T02500181
KSLR 250135Z AUTO 09010KT 10SM CLR 26/18 A2990 RMK AO2 LTG DSNT E T02550180
KSLR 250115Z AUTO 08006KT 10SM SCT075 26/17 A2991 RMK AO2 T02600174
KSLR 250055Z AUTO 05010G16KT 10SM BKN075 BKN090 27/17 A2992 RMK AO2 LTG DSNT E T02660173
KSLR 250035Z AUTO 04009G22KT 10SM SCT065 BKN090 28/17 A2993 RMK AO2 LTG DSNT E T02750174
KSLR 250015Z AUTO 13007KT 10SM SCT090 34/19 A2993 RMK AO2 LTG DSNT NE AND E T03430194
KSLR 242355Z AUTO 13006KT 10SM SCT080 35/20 A2994 RMK AO2 LTG DSNT N THRU E T03460195 10356 20317
KSLR 242335Z AUTO 13007KT 10SM SCT060 SCT070 BKN080 34/20 A2993 RMK AO2 LTG DSNT N T03400195
KSLR 242315Z AUTO 16004KT 10SM SCT070 SCT080 34/19 A2993 RMK AO2 T03370193
KSLR 242255Z AUTO 17006KT 10SM SCT055 BKN070 34/19 A2992 RMK AO2 T03380193
KSLR 242235Z AUTO 16010KT 10SM BKN055 BKN070 34/19 A2991 RMK AO2 T03400192
KSLR 242215Z AUTO 18010G14KT 10SM BKN055 35/20 A2989 RMK AO2 T03530195
KSLR 242155Z AUTO 17012G18KT 10SM BKN055 35/19 A2988 RMK AO2 T03510191
KSLR 242135Z AUTO 17012G18KT 10SM SCT055 36/19 A2988 RMK AO2 T03550190
KSLR 242115Z AUTO 17012G21KT 10SM CLR 35/19 A2987 RMK AO2 T03490191
KSLR 242055Z AUTO 17014G24KT 10SM CLR 35/19 A2986 RMK AO2 T03460192
KSLR 242035Z AUTO 19020G25KT 10SM CLR 35/20 A2985 RMK AO2 T03480196
KSLR 242015Z AUTO 19016G26KT 10SM CLR 34/19 A2985 RMK AO2 T03430191
KSLR 241955Z AUTO 19016G25KT 10SM CLR 34/20 A2984 RMK AO2 T03410195
KSLR 241935Z AUTO 18014G25KT 10SM CLR 34/20 A2985 RMK AO2 T03380198
KSLR 241915Z AUTO 19019G25KT 10SM CLR 34/20 A2986 RMK AO2 T03370200
KSLR 241855Z AUTO 19015G23KT 10SM CLR 34/20 A2987 RMK AO2 T03350199
KSLR 241835Z AUTO 18014G21KT 10SM SCT035 SCT044 33/20 A2988 RMK AO2 T03310199
KSLR 241815Z AUTO 17012G20KT 10SM SCT035 SCT044 33/22 A2990 RMK AO2 T03260215
KSLR 241755Z AUTO 16010G17KT 10SM SCT033 SCT055 32/22 A2991 RMK AO2 T03180221 10320 20267
KSLR 241735Z AUTO 16013G16KT 10SM SCT033 SCT041 SCT050 32/22 A2992 RMK AO2 T03160219
KSLR 241715Z AUTO 19005G14KT 10SM SCT034 BKN040 OVC050 31/22 A2994 RMK AO2 T03050217
KSLR 241655Z AUTO 16009KT 10SM SCT028 BKN039 OVC050 30/22 A2995 RMK AO2 T02990221
KSLR 241635Z AUTO 14007KT 110V170 10SM SCT028 BKN037 OVC050 30/23 A2995 RMK AO2 T03000225
KSLR 241615Z AUTO 12006KT 10SM SCT026 BKN034 OVC055 29/23 A2995 RMK AO2 T02880229
KSLR 241555Z AUTO 11005KT 10SM SCT026 BKN034 OVC049 28/23 A2995 RMK AO2 T02800227
KSLR 241535Z AUTO 12003KT 10SM SCT028 BKN033 OVC041 27/23 A2995 RMK AO2 T02730230
KSLR 241515Z AUTO 10005KT 10SM VCTS SCT024 OVC033 27/23 A2995 RMK AO2 LTG DSNT E T02700231
KSLR 241455Z AUTO 16004KT 10SM -RA SCT024 BKN029 OVC034 27/23 A2996 RMK AO2 LTG DSNT E T02710230
KSLR 241435Z AUTO 22007KT 10SM -RA BKN025 BKN032 OVC046 28/22 A2996 RMK AO2 LTG DSNT SE T02800224
KSLR 241415Z AUTO 20006KT 10SM BKN025 BKN030 OVC038 28/22 A2995 RMK AO2 LTG DSNT NE T02800222
KSLR 241355Z AUTO 22004KT 10SM BKN026 BKN032 OVC048 28/22 A2996 RMK AO2 LTG DSNT NE T02750221
KSLR 241335Z AUTO 23007KT 10SM SCT026 SCT035 OVC044 27/22 A2994 RMK AO2 LTG DSNT NE T02730221
KSLR 241315Z AUTO 20012G15KT 10SM SCT028 SCT032 OVC042 27/22 A2991 RMK AO2 T02710221
KSLR 241255Z AUTO 21009KT 10SM BKN026 BKN031 OVC038 27/22 A2991 RMK AO2 T02700221
KSLR 241235Z AUTO 00000KT 10SM OVC026 27/22 A2990 RMK AO2 T02700220
KSLR 241215Z AUTO 21009KT 10SM OVC026 27/22 A2987 RMK AO2 T02700222
KSLR 241155Z AUTO 20008KT 10SM BKN028 BKN032 27/22 A2985 RMK AO2 70002 T02660222 10288 20265
KSLR 241135Z AUTO 18014G17KT 10SM BKN028 27/22 A2982 RMK AO2 T02650222
KSLR 241115Z AUTO 17011G19KT 10SM BKN025 BKN031 27/22 A2982 RMK AO2 T02660222
KSLR 241055Z AUTO 19010G15KT 10SM OVC025 27/22 A2981 RMK AO2 T02650223
KSLR 241035Z AUTO 18013KT 10SM BKN025 OVC029 27/22 A2981 RMK AO2 T02660223
KSLR 241015Z AUTO 16011G15KT 10SM BKN023 BKN029 27/23 A2979 RMK AO2 T02660225
KSLR 240955Z AUTO 16009G20KT 10SM CLR 27/23 A2979 RMK AO2 T02680225
KSLR 240935Z AUTO 16014G19KT 10SM SCT023 SCT031 27/22 A2978 RMK AO2 T02700223
KSLR 240915Z AUTO 17013G23KT 10SM BKN023 BKN032 27/23 A2979 RMK AO2 LTG DSNT NE T02710228
KSLR 240855Z AUTO 16014G17KT 10SM OVC021 27/23 A2981 RMK AO2 T02740231
KSLR 240835Z AUTO 17010G15KT 10SM OVC021 28/24 A2982 RMK AO2 T02750235
KSLR 240815Z AUTO 17004G19KT 10SM OVC021 28/24 A2981 RMK AO2 T02750237
KSLR 240755Z AUTO 18012G20KT 10SM BKN021 28/24 A2983 RMK AO2 T02760238
KSLR 240735Z AUTO 18012G22KT 10SM CLR 28/24 A2984 RMK AO2 T02770237
KSLR 240715Z AUTO 18007G16KT 10SM CLR 28/24 A2984 RMK AO2 T02800237
KSLR 240655Z AUTO 17012KT 10SM CLR 28/24 A2984 RMK AO2 T02810235
KSLR 240635Z AUTO 18007G14KT 10SM CLR 29/24 A2984 RMK AO2 T02850235
KSLR 240615Z AUTO 18011G14KT 10SM CLR 29/23 A2984 RMK AO2 T02860233
KSLR 240555Z AUTO 18009G15KT 10SM SCT050 29/23 A2984 RMK AO2 LTG DSNT W T02880230 10335 20288 403490227
KSLR 240535Z AUTO 17009G16KT 10SM SCT048 SCT055 29/23 A2984 RMK AO2 LTG DSNT SW T02880227
KSLR 240515Z AUTO 19009G14KT 10SM CLR 29/22 A2984 RMK AO2 T02900219
KSLR 240455Z AUTO 17010KT 10SM CLR 29/21 A2982 RMK AO2 T02900210
KSLR 240435Z AUTO 16005KT 10SM CLR 29/21 A2984 RMK AO2 T02900205
KSLR 240415Z AUTO 00000KT 10SM CLR 29/21 A2984 RMK AO2 T02900205
KSLR 240355Z AUTO 17004KT 10SM CLR 29/20 A2982 RMK AO2 T02880203
KSLR 240335Z AUTO 17005KT 10SM CLR 30/20 A2982 RMK AO2 T02950202
KSLR 240315Z AUTO 00000KT 10SM CLR 30/20 A2981 RMK AO2 T02960200
KSLR 240255Z AUTO 00000KT 10SM CLR 30/20 A2981 RMK AO2 T02970199
KSLR 240235Z AUTO 00000KT 10SM CLR 30/20 A2981 RMK AO2 T02990198
KSLR 240215Z AUTO 00000KT 10SM CLR 31/20 A2980 RMK AO2 T03050195
KSLR 240155Z AUTO 17005KT 10SM CLR 31/19 A2980 RMK AO2 T03080194
KSLR 240135Z AUTO 17006KT 10SM CLR 31/19 A2980 RMK AO2 T03120192
KSLR 240115Z AUTO 00000KT 10SM CLR 32/19 A2980 RMK AO2 T03180188
KSLR 240055Z AUTO 19008KT 10SM CLR 32/18 A2980 RMK AO2 T03240184
KSLR 240035Z AUTO 19008G14KT 10SM CLR 33/18 A2980 RMK AO2 T03300182
KSLR 240015Z AUTO 19010G14KT 10SM SCT048 33/18 A2979 RMK AO2 T03320181
KSLR 232355Z AUTO 19012G16KT 10SM SCT048 BKN050 34/19 A2979 RMK AO2 T03360189 10349 20307
KSLR 232335Z AUTO 15004KT 10SM BKN050 33/22 A2979 RMK AO2 T03340215
KSLR 232315Z AUTO 16010G15KT 10SM SCT050 SCT060 33/21 A2979 RMK AO2 T03300210
KSLR 232255Z AUTO 15009G14KT 10SM BKN050 BKN055 33/21 A2979 RMK AO2 T03310211
KSLR 232235Z AUTO 14010G15KT 10SM BKN048 BKN050 35/21 A2980 RMK AO2 T03470211
KSLR 232215Z AUTO 15009KT 10SM SCT048 SCT060 34/21 A2980 RMK AO2 T03420210
KSLR 232155Z AUTO 17004KT 10SM SCT048 SCT060 34/21 A2981 RMK AO2 T03380212
KSLR 232135Z AUTO 14004KT 10SM BKN060 34/21 A2981 RMK AO2 T03380213
KSLR 232115Z AUTO 15009KT 10SM BKN060 33/21 A2981 RMK AO2 T03340213
KSLR 232055Z AUTO 15008G14KT 10SM SCT044 BKN060 33/22 A2981 RMK AO2 T03330215
KSLR 232035Z AUTO 16009KT 140V200 10SM SCT042 34/21 A2982 RMK AO2 T03440214
KSLR 232015Z AUTO 14007G14KT 10SM SCT042 34/22 A2982 RMK AO2 T03360220
KSLR 231955Z AUTO 17012G15KT 10SM SCT038 SCT045 34/22 A2983 RMK AO2 T03380220
KSLR 231935Z AUTO 16010G14KT 10SM SCT034 BKN045 33/22 A2984 RMK AO2 T03320223
KSLR 231915Z AUTO 17007KT 10SM SCT034 BKN040 33/23 A2984 RMK AO2 T03250226
KSLR 231855Z AUTO 17009G14KT 10SM SCT031 OVC040 32/23 A2986 RMK AO2 T03240227
KSLR 231835Z AUTO 15007KT 10SM BKN030 BKN036 OVC044 32/23 A2987 RMK AO2 T03150231
KSLR 231815Z AUTO 14010G15KT 10SM BKN028 32/23 A2987 RMK AO2 T03170230